• Join FlightAware (Why Join?)
  • Login
  • US Flag 
01:29AM EDT


 

Airport Tracker/Info


-or-


 

Live Flight TrackerFlight Track Log ✈ PAG102 ✈ 28-Jun-2013 ✈ CYRS - CYWG

Flight Track Log - Related Links

Times and Time Zones

All times are in EDT time to prevent confusion due to time zone crossing. See the PAG102 flight status page for this flight to view local times or setup timezone preferences in your user account.

Time Position Orientation Groundspeed Altitude Reporting Facility
EDT Latitude Longitude Course Direction KTS MPH feet Rate Location/Type
06:18PM 53.7667 -93.9000 209° Southwest 220 253 15,000  Level Winnipeg Center
06:20PM 53.5072 -94.1641 209° Southwest  Level FlightAware Approximate
06:20PM 53.7000 -93.9667 211° Southwest 170 196 16,600  Level Winnipeg Center
06:21PM 53.4472 -94.2193 209° Southwest  Level FlightAware Approximate
06:21PM 53.6500 -94.0000 202° Southwest 200 230 17,600  Level Winnipeg Center
06:22PM 53.3874 -94.2752 209° Southwest  Level FlightAware Approximate
06:22PM 53.6333 -94.0500 241° Southwest 200 230 18,700  Level Winnipeg Center
06:23PM 53.3276 -94.3309 209° Southwest  Level FlightAware Approximate
06:23PM 53.5833 -94.0833 202° Southwest 200 230 19,700  Level Winnipeg Center
06:24PM 53.2678 -94.3864 209° Southwest  Level FlightAware Approximate
06:24PM 53.5167 -94.1500 211° Southwest 200 230 20,500  Level Winnipeg Center
06:25PM 53.4667 -94.1833 202° Southwest 200 230 21,200 600 Climbing Winnipeg Center
06:26PM 53.4167 -94.2167 202° Southwest 210 242 21,800 360 Climbing Winnipeg Center
06:27PM 53.3667 -94.2667 211° Southwest 220 253 22,000 60 Climbing Winnipeg Center
06:28PM 53.3000 -94.3333 211° Southwest 240 276 22,000  Level Winnipeg Center
06:29PM 53.2333 -94.3833 204° Southwest 250 288 22,100  Climbing Winnipeg Center
06:30PM 53.1667 -94.4500 211° Southwest 260 299 22,000 -60 Descending Winnipeg Center
06:31PM 53.1000 -94.5167 211° Southwest 260 299 22,000  Level Winnipeg Center
06:32PM 53.0500 -94.5667 211° Southwest 250 288 22,000  Level Winnipeg Center
06:33PM 52.9833 -94.6333 211° Southwest 250 288 22,000  Level Winnipeg Center
06:35PM 52.8710 -94.7382 209° Southwest  Level FlightAware Approximate
06:42PM 52.4528 -95.1233 209° Southwest  Level FlightAware Approximate
06:42PM 52.4500 -95.1167 208° Southwest 250 288 22,000  Level Winnipeg Center
06:43PM 52.3930 -95.1777 209° Southwest  Level FlightAware Approximate
06:43PM 52.4167 -95.1833 231° Southwest 250 288 22,000  Level Winnipeg Center
06:44PM 52.3330 -95.2316 208° Southwest  Level FlightAware Approximate
06:44PM 52.3500 -95.2333 205° Southwest 250 288 22,000  Level Winnipeg Center
06:45PM 52.2726 -95.2843 208° Southwest  Level FlightAware Approximate
06:45PM 52.3000 -95.3000 219° Southwest 250 288 22,000  Level Winnipeg Center
06:46PM 52.2122 -95.3368 208° Southwest  Level FlightAware Approximate
06:46PM 52.2333 -95.3500 205° Southwest 250 288 22,000  Level Winnipeg Center
06:47PM 52.1518 -95.3892 208° Southwest  Level FlightAware Approximate
06:47PM 52.1833 -95.4000 212° Southwest 240 276 22,000  Level Winnipeg Center
06:48PM 52.1333 -95.4667 219° Southwest 240 276 22,000  Level Winnipeg Center
06:49PM 52.0667 -95.5167 205° Southwest 240 276 22,000  Level Winnipeg Center
06:50PM 52.0167 -95.6000 226° Southwest 240 276 22,000  Level Winnipeg Center
06:51PM 51.9500 -95.6667 212° Southwest 240 276 22,000  Level Winnipeg Center
06:52PM 51.9000 -95.7167 212° Southwest 240 276 22,000 -60 Level Winnipeg Center
06:53PM 51.8500 -95.7667 212° Southwest 240 276 21,900 -60 Descending Winnipeg Center
06:54PM 51.7833 -95.8500 218° Southwest 250 288 21,900  Level Winnipeg Center
06:55PM 51.7333 -95.8833 202° Southwest 240 276 22,000  Climbing Winnipeg Center
06:56PM 51.6667 -95.9333 205° Southwest 240 276 21,900  Descending Winnipeg Center
06:57PM 51.6167 -96.0000 220° Southwest 240 276 22,000  Climbing Winnipeg Center
06:58PM 51.5500 -96.0500 205° Southwest 240 276 22,000  Level Winnipeg Center
06:59PM 51.4833 -96.0833 197° South 240 276 22,000  Level Winnipeg Center
07:00PM 51.4167 -96.1333 205° Southwest 250 288 22,000  Level Winnipeg Center
07:01PM 51.3667 -96.1833 212° Southwest 250 288 22,000  Level Winnipeg Center
07:02PM 51.3000 -96.2167 197° South 250 288 22,100  Climbing Winnipeg Center
07:03PM 51.2333 -96.2667 205° Southwest 250 288 22,000 -60 Descending Winnipeg Center
07:04PM 51.1667 -96.3167 205° Southwest 250 288 22,000  Level Winnipeg Center
07:05PM 51.1167 -96.3833 220° Southwest 250 288 22,000 -120 Level Winnipeg Center
07:06PM 51.0500 -96.4000 189° South 250 288 21,800 -420 Descending Winnipeg Center
07:07PM 50.9833 -96.4667 212° Southwest 260 299 21,200 -900 Descending Winnipeg Center
07:08PM 50.9167 -96.5167 205° Southwest 270 311 20,000 -1,200 Descending Winnipeg Center
07:09PM 50.8333 -96.5667 201° Southwest 280 322 18,800 -1,200 Descending Winnipeg Center
07:10PM 50.7667 -96.6167 205° Southwest 300 345 17,600 -1,260 Descending Winnipeg Center
07:11PM 50.6833 -96.6667 201° Southwest 300 345 16,300 -1,320 Descending Winnipeg Center
07:12PM 50.6000 -96.7333 207° Southwest 310 357 15,000 -1,320 Descending Winnipeg Center
07:13PM 50.5333 -96.7833 205° Southwest 310 357 13,700 -1,380 Descending Winnipeg Center
07:14PM 50.4500 -96.8667 212° Southwest 310 357 12,300 -1,500 Descending Winnipeg Center
07:15PM 50.3667 -96.8833 187° South 300 345 10,700 -1,800 Descending Winnipeg Center
07:16PM 50.3000 -96.9167 198° South 300 345 8,700 -1,740 Descending Winnipeg Center
07:17PM 50.2167 -96.9333 187° South 280 322 7,300 -1,320 Descending Winnipeg Center
07:18PM 50.1500 -97.0000 213° Southwest 270 311 6,100 -900 Descending Winnipeg Center
07:19PM 50.0667 -97.0167 187° South 270 311 5,600 -600 Descending Winnipeg Center
07:20PM 50.0000 -97.0500 198° South 270 311 5,000 -600 Descending Winnipeg Center
07:22PM 49.8667 -97.1000 194° South 210 242 3,900 -480 Descending Winnipeg Center
07:23PM 49.8333 -97.1167 198° South 190 219 3,600 -1,020 Descending Winnipeg Center
07:24PM 49.8500 -97.1667 297° West 150 173 1,900 -1,440 Descending Winnipeg Center
07:25PM 49.8833 -97.2333 308° West 120 138 800 -600 Descending Winnipeg Center
07:26PM 49.8833 -97.2333 308° West 20 23 800  Level Winnipeg Center